sensor_id;sensor_type;location;lat;lon;timestamp;temperature;humidity
24017;DHT22;12222;50.090;19.702;2022-10-18T00:03:42;10.00;99.90
24017;DHT22;12222;50.090;19.702;2022-10-18T00:09:09;10.00;99.90
24017;DHT22;12222;50.090;19.702;2022-10-18T00:14:31;9.90;99.90
24017;DHT22;12222;50.090;19.702;2022-10-18T00:19:53;9.90;99.90
24017;DHT22;12222;50.090;19.702;2022-10-18T00:25:16;9.90;99.90
24017;DHT22;12222;50.090;19.702;2022-10-18T00:30:38;9.80;99.90
24017;DHT22;12222;50.090;19.702;2022-10-18T00:36:01;9.80;99.90
24017;DHT22;12222;50.090;19.702;2022-10-18T00:41:29;9.80;99.90
24017;DHT22;12222;50.090;19.702;2022-10-18T00:46:54;9.70;99.90
24017;DHT22;12222;50.090;19.702;2022-10-18T00:52:25;9.60;99.90
24017;DHT22;12222;50.090;19.702;2022-10-18T00:57:48;9.50;99.90
24017;DHT22;12222;50.090;19.702;2022-10-18T01:03:10;9.40;99.90
24017;DHT22;12222;50.090;19.702;2022-10-18T01:08:57;9.50;99.90
24017;DHT22;12222;50.090;19.702;2022-10-18T01:14:55;9.50;99.90
24017;DHT22;12222;50.090;19.702;2022-10-18T01:26:40;9.60;99.90
24017;DHT22;12222;50.090;19.702;2022-10-18T01:32:13;9.70;99.90
24017;DHT22;12222;50.090;19.702;2022-10-18T01:37:38;9.80;99.90
24017;DHT22;12222;50.090;19.702;2022-10-18T01:43:02;10.10;99.90
24017;DHT22;12222;50.090;19.702;2022-10-18T01:48:25;10.30;99.90
24017;DHT22;12222;50.090;19.702;2022-10-18T01:53:48;10.50;99.90
24017;DHT22;12222;50.090;19.702;2022-10-18T02:05:17;10.60;99.90
24017;DHT22;12222;50.090;19.702;2022-10-18T02:10:47;10.60;99.90
24017;DHT22;12222;50.090;19.702;2022-10-18T02:16:15;10.70;99.90
24017;DHT22;12222;50.090;19.702;2022-10-18T02:21:41;10.70;99.90
24017;DHT22;12222;50.090;19.702;2022-10-18T02:27:04;10.80;99.90
24017;DHT22;12222;50.090;19.702;2022-10-18T02:32:38;10.70;99.90
24017;DHT22;12222;50.090;19.702;2022-10-18T02:38:03;10.70;99.90
24017;DHT22;12222;50.090;19.702;2022-10-18T02:43:26;10.70;99.90
24017;DHT22;12222;50.090;19.702;2022-10-18T02:48:48;10.60;99.90
24017;DHT22;12222;50.090;19.702;2022-10-18T02:54:10;10.50;99.90
24017;DHT22;12222;50.090;19.702;2022-10-18T02:59:32;10.50;99.90
24017;DHT22;12222;50.090;19.702;2022-10-18T03:04:54;10.60;99.90
24017;DHT22;12222;50.090;19.702;2022-10-18T03:10:16;10.70;99.90
24017;DHT22;12222;50.090;19.702;2022-10-18T03:15:38;10.70;99.90
24017;DHT22;12222;50.090;19.702;2022-10-18T03:21:05;10.80;99.90
24017;DHT22;12222;50.090;19.702;2022-10-18T03:26:27;10.80;99.90
24017;DHT22;12222;50.090;19.702;2022-10-18T03:31:49;10.90;99.90
24017;DHT22;12222;50.090;19.702;2022-10-18T03:37:11;10.80;99.90
24017;DHT22;12222;50.090;19.702;2022-10-18T03:42:33;10.90;99.90
24017;DHT22;12222;50.090;19.702;2022-10-18T03:47:56;10.90;99.90
24017;DHT22;12222;50.090;19.702;2022-10-18T03:53:18;11.10;99.90
24017;DHT22;12222;50.090;19.702;2022-10-18T03:58:40;11.10;99.90
24017;DHT22;12222;50.090;19.702;2022-10-18T04:04:02;11.00;99.90
24017;DHT22;12222;50.090;19.702;2022-10-18T04:09:24;11.00;99.90
24017;DHT22;12222;50.090;19.702;2022-10-18T04:14:46;11.00;99.90
24017;DHT22;12222;50.090;19.702;2022-10-18T04:20:09;10.50;99.90
24017;DHT22;12222;50.090;19.702;2022-10-18T04:25:31;9.70;99.90
24017;DHT22;12222;50.090;19.702;2022-10-18T04:30:54;9.40;99.90
24017;DHT22;12222;50.090;19.702;2022-10-18T04:36:16;9.20;99.90
24017;DHT22;12222;50.090;19.702;2022-10-18T04:41:38;9.30;99.90
24017;DHT22;12222;50.090;19.702;2022-10-18T04:47:00;9.40;99.90
24017;DHT22;12222;50.090;19.702;2022-10-18T04:52:22;9.20;99.90
24017;DHT22;12222;50.090;19.702;2022-10-18T04:57:44;9.00;99.90
24017;DHT22;12222;50.090;19.702;2022-10-18T05:03:07;8.90;99.90
24017;DHT22;12222;50.090;19.702;2022-10-18T05:08:34;8.90;99.90
24017;DHT22;12222;50.090;19.702;2022-10-18T05:13:56;8.90;99.90
24017;DHT22;12222;50.090;19.702;2022-10-18T05:19:19;8.80;99.90
24017;DHT22;12222;50.090;19.702;2022-10-18T05:24:41;9.10;99.90
24017;DHT22;12222;50.090;19.702;2022-10-18T05:30:03;9.50;99.90
24017;DHT22;12222;50.090;19.702;2022-10-18T05:35:26;9.80;99.90
24017;DHT22;12222;50.090;19.702;2022-10-18T05:40:49;10.10;99.90
24017;DHT22;12222;50.090;19.702;2022-10-18T05:46:11;10.50;99.90
24017;DHT22;12222;50.090;19.702;2022-10-18T05:51:36;10.60;99.90
24017;DHT22;12222;50.090;19.702;2022-10-18T05:56:58;10.70;99.90
24017;DHT22;12222;50.090;19.702;2022-10-18T07:03:15;12.70;99.90
24017;DHT22;12222;50.090;19.702;2022-10-18T07:08:38;13.70;99.90
24017;DHT22;12222;50.090;19.702;2022-10-18T07:14:01;13.60;99.90
24017;DHT22;12222;50.090;19.702;2022-10-18T07:19:25;13.70;99.90
24017;DHT22;12222;50.090;19.702;2022-10-18T07:24:47;14.10;99.90
24017;DHT22;12222;50.090;19.702;2022-10-18T07:30:10;14.50;99.90
24017;DHT22;12222;50.090;19.702;2022-10-18T07:35:32;14.70;99.90
24017;DHT22;12222;50.090;19.702;2022-10-18T07:41:01;14.60;99.90
24017;DHT22;12222;50.090;19.702;2022-10-18T07:46:24;14.60;99.90
24017;DHT22;12222;50.090;19.702;2022-10-18T07:51:46;14.60;99.90
24017;DHT22;12222;50.090;19.702;2022-10-18T07:57:08;14.70;99.90
24017;DHT22;12222;50.090;19.702;2022-10-18T08:02:30;14.90;99.90
24017;DHT22;12222;50.090;19.702;2022-10-18T08:07:53;15.10;99.90
24017;DHT22;12222;50.090;19.702;2022-10-18T08:13:15;15.30;99.90
24017;DHT22;12222;50.090;19.702;2022-10-18T08:18:38;15.40;99.90
24017;DHT22;12222;50.090;19.702;2022-10-18T08:24:00;15.60;99.90
24017;DHT22;12222;50.090;19.702;2022-10-18T08:29:22;15.80;99.90
24017;DHT22;12222;50.090;19.702;2022-10-18T08:34:50;15.90;99.90
24017;DHT22;12222;50.090;19.702;2022-10-18T08:40:13;15.90;99.90
24017;DHT22;12222;50.090;19.702;2022-10-18T08:45:37;16.00;99.90
24017;DHT22;12222;50.090;19.702;2022-10-18T08:51:06;16.40;99.90
24017;DHT22;12222;50.090;19.702;2022-10-18T08:56:34;16.60;99.90
24017;DHT22;12222;50.090;19.702;2022-10-18T09:08:22;16.80;99.90
24017;DHT22;12222;50.090;19.702;2022-10-18T09:25:17;17.40;99.90
24017;DHT22;12222;50.090;19.702;2022-10-18T09:36:20;17.70;99.90
24017;DHT22;12222;50.090;19.702;2022-10-18T09:41:53;17.40;99.90
24017;DHT22;12222;50.090;19.702;2022-10-18T09:53:18;21.40;99.10
24017;DHT22;12222;50.090;19.702;2022-10-18T09:58:46;21.40;95.60
24017;DHT22;12222;50.090;19.702;2022-10-18T10:04:09;20.30;94.50
24017;DHT22;12222;50.090;19.702;2022-10-18T10:09:40;19.60;96.10
24017;DHT22;12222;50.090;19.702;2022-10-18T11:16:53;20.70;87.40
24017;DHT22;12222;50.090;19.702;2022-10-18T11:22:20;20.90;86.40
24017;DHT22;12222;50.090;19.702;2022-10-18T11:27:53;21.00;86.90
24017;DHT22;12222;50.090;19.702;2022-10-18T11:33:32;21.50;83.10
24017;DHT22;12222;50.090;19.702;2022-10-18T11:45:34;21.70;82.10
24017;DHT22;12222;50.090;19.702;2022-10-18T12:08:43;22.90;76.20
24017;DHT22;12222;50.090;19.702;2022-10-18T12:14:19;23.10;74.70
24017;DHT22;12222;50.090;19.702;2022-10-18T12:19:46;23.20;74.70
24017;DHT22;12222;50.090;19.702;2022-10-18T12:25:13;23.40;73.70
24017;DHT22;12222;50.090;19.702;2022-10-18T12:30:55;23.00;71.90
24017;DHT22;12222;50.090;19.702;2022-10-18T12:41:46;22.40;74.20
24017;DHT22;12222;50.090;19.702;2022-10-18T12:47:22;21.90;76.20
24017;DHT22;12222;50.090;19.702;2022-10-18T12:53:01;21.60;75.10
24017;DHT22;12222;50.090;19.702;2022-10-18T12:58:30;21.40;76.00
24017;DHT22;12222;50.090;19.702;2022-10-18T13:16:28;21.80;75.70
24017;DHT22;12222;50.090;19.702;2022-10-18T13:33:36;21.70;76.70
24017;DHT22;12222;50.090;19.702;2022-10-18T13:39:04;22.00;76.00
24017;DHT22;12222;50.090;19.702;2022-10-18T13:44:32;22.30;75.40
24017;DHT22;12222;50.090;19.702;2022-10-18T13:55:53;21.40;77.30
24017;DHT22;12222;50.090;19.702;2022-10-18T14:07:05;20.80;80.30
24017;DHT22;12222;50.090;19.702;2022-10-18T14:12:37;20.50;81.80
24017;DHT22;12222;50.090;19.702;2022-10-18T14:18:14;20.30;82.90
24017;DHT22;12222;50.090;19.702;2022-10-18T14:23:43;20.20;83.70
24017;DHT22;12222;50.090;19.702;2022-10-18T14:29:16;20.00;85.40
24017;DHT22;12222;50.090;19.702;2022-10-18T14:34:43;19.80;86.00
24017;DHT22;12222;50.090;19.702;2022-10-18T14:40:25;19.80;87.00
24017;DHT22;12222;50.090;19.702;2022-10-18T14:45:49;19.60;87.70
24017;DHT22;12222;50.090;19.702;2022-10-18T14:51:17;19.30;90.30
24017;DHT22;12222;50.090;19.702;2022-10-18T14:56:40;19.10;90.80
24017;DHT22;12222;50.090;19.702;2022-10-18T15:02:20;18.90;92.70
24017;DHT22;12222;50.090;19.702;2022-10-18T15:07:44;18.70;94.10
24017;DHT22;12222;50.090;19.702;2022-10-18T15:13:10;18.50;95.30
24017;DHT22;12222;50.090;19.702;2022-10-18T15:18:35;18.30;98.50
24017;DHT22;12222;50.090;19.702;2022-10-18T15:29:51;17.90;99.90
24017;DHT22;12222;50.090;19.702;2022-10-18T15:35:30;17.70;99.90
24017;DHT22;12222;50.090;19.702;2022-10-18T15:40:54;17.50;99.90
24017;DHT22;12222;50.090;19.702;2022-10-18T15:46:36;17.20;99.90
24017;DHT22;12222;50.090;19.702;2022-10-18T15:57:45;16.60;99.90
24017;DHT22;12222;50.090;19.702;2022-10-18T16:03:12;16.30;99.90
24017;DHT22;12222;50.090;19.702;2022-10-18T16:08:42;16.20;99.90
24017;DHT22;12222;50.090;19.702;2022-10-18T16:14:07;16.20;99.90
24017;DHT22;12222;50.090;19.702;2022-10-18T16:19:31;16.00;99.90
24017;DHT22;12222;50.090;19.702;2022-10-18T16:24:55;15.80;99.90
24017;DHT22;12222;50.090;19.702;2022-10-18T16:36:18;15.90;99.90
24017;DHT22;12222;50.090;19.702;2022-10-18T16:41:42;15.80;99.90
24017;DHT22;12222;50.090;19.702;2022-10-18T16:47:09;15.80;99.90
24017;DHT22;12222;50.090;19.702;2022-10-18T16:52:33;15.90;99.90
24017;DHT22;12222;50.090;19.702;2022-10-18T16:57:57;16.00;99.90
24017;DHT22;12222;50.090;19.702;2022-10-18T17:03:28;16.00;99.90
24017;DHT22;12222;50.090;19.702;2022-10-18T17:08:52;16.10;99.90
24017;DHT22;12222;50.090;19.702;2022-10-18T17:14:16;16.00;99.90
24017;DHT22;12222;50.090;19.702;2022-10-18T17:19:39;15.90;99.90
24017;DHT22;12222;50.090;19.702;2022-10-18T17:25:03;15.90;99.90
24017;DHT22;12222;50.090;19.702;2022-10-18T17:30:27;15.90;99.90
24017;DHT22;12222;50.090;19.702;2022-10-18T17:35:50;16.00;99.90
24017;DHT22;12222;50.090;19.702;2022-10-18T17:41:12;16.10;99.90
24017;DHT22;12222;50.090;19.702;2022-10-18T17:46:35;16.20;99.90
24017;DHT22;12222;50.090;19.702;2022-10-18T17:51:59;16.30;99.90
24017;DHT22;12222;50.090;19.702;2022-10-18T17:57:28;16.50;99.90
24017;DHT22;12222;50.090;19.702;2022-10-18T18:02:51;16.60;99.90
24017;DHT22;12222;50.090;19.702;2022-10-18T18:08:14;16.80;99.90
24017;DHT22;12222;50.090;19.702;2022-10-18T18:13:36;16.90;99.90
24017;DHT22;12222;50.090;19.702;2022-10-18T18:18:59;17.00;99.90
24017;DHT22;12222;50.090;19.702;2022-10-18T18:24:25;16.90;99.90
24017;DHT22;12222;50.090;19.702;2022-10-18T18:29:47;16.90;99.90
24017;DHT22;12222;50.090;19.702;2022-10-18T18:35:10;16.90;99.90
24017;DHT22;12222;50.090;19.702;2022-10-18T18:40:34;16.90;99.90
24017;DHT22;12222;50.090;19.702;2022-10-18T18:45:56;17.00;99.90
24017;DHT22;12222;50.090;19.702;2022-10-18T18:51:19;17.00;99.90
24017;DHT22;12222;50.090;19.702;2022-10-18T18:56:42;17.00;99.90
24017;DHT22;12222;50.090;19.702;2022-10-18T19:02:05;17.00;99.90
24017;DHT22;12222;50.090;19.702;2022-10-18T19:13:34;17.00;99.90
24017;DHT22;12222;50.090;19.702;2022-10-18T19:19:06;16.90;99.90
24017;DHT22;12222;50.090;19.702;2022-10-18T19:25:07;16.90;99.90
24017;DHT22;12222;50.090;19.702;2022-10-18T19:30:43;16.80;99.90
24017;DHT22;12222;50.090;19.702;2022-10-18T19:36:14;16.80;99.90
24017;DHT22;12222;50.090;19.702;2022-10-18T19:41:37;16.70;99.90
24017;DHT22;12222;50.090;19.702;2022-10-18T19:47:02;16.70;99.90
24017;DHT22;12222;50.090;19.702;2022-10-18T19:52:27;16.70;99.90
24017;DHT22;12222;50.090;19.702;2022-10-18T19:57:51;16.60;99.90
24017;DHT22;12222;50.090;19.702;2022-10-18T20:03:28;16.60;99.90
24017;DHT22;12222;50.090;19.702;2022-10-18T20:08:52;16.50;99.90
24017;DHT22;12222;50.090;19.702;2022-10-18T20:14:15;16.50;99.90
24017;DHT22;12222;50.090;19.702;2022-10-18T20:19:41;16.40;99.90
24017;DHT22;12222;50.090;19.702;2022-10-18T20:25:04;16.30;99.90
24017;DHT22;12222;50.090;19.702;2022-10-18T20:30:27;16.10;99.90
24017;DHT22;12222;50.090;19.702;2022-10-18T20:35:50;15.80;99.90
24017;DHT22;12222;50.090;19.702;2022-10-18T20:41:27;15.50;99.90
24017;DHT22;12222;50.090;19.702;2022-10-18T20:46:54;15.30;99.90
24017;DHT22;12222;50.090;19.702;2022-10-18T20:52:17;15.20;99.90
24017;DHT22;12222;50.090;19.702;2022-10-18T20:57:39;14.40;99.90
24017;DHT22;12222;50.090;19.702;2022-10-18T21:03:03;13.70;99.90
24017;DHT22;12222;50.090;19.702;2022-10-18T21:08:26;13.50;99.90
24017;DHT22;12222;50.090;19.702;2022-10-18T21:13:53;13.50;99.90
24017;DHT22;12222;50.090;19.702;2022-10-18T21:19:22;13.50;99.90
24017;DHT22;12222;50.090;19.702;2022-10-18T21:24:45;13.50;99.90
24017;DHT22;12222;50.090;19.702;2022-10-18T21:30:08;13.50;99.90
24017;DHT22;12222;50.090;19.702;2022-10-18T21:35:38;13.40;99.90
24017;DHT22;12222;50.090;19.702;2022-10-18T21:41:07;13.40;99.90
24017;DHT22;12222;50.090;19.702;2022-10-18T21:46:31;13.40;99.90
24017;DHT22;12222;50.090;19.702;2022-10-18T21:51:54;13.20;99.90
24017;DHT22;12222;50.090;19.702;2022-10-18T21:57:17;13.20;99.90
24017;DHT22;12222;50.090;19.702;2022-10-18T22:02:40;13.20;99.90
24017;DHT22;12222;50.090;19.702;2022-10-18T22:08:04;13.30;99.90
24017;DHT22;12222;50.090;19.702;2022-10-18T22:13:27;13.20;99.90
24017;DHT22;12222;50.090;19.702;2022-10-18T22:18:52;13.10;99.90
24017;DHT22;12222;50.090;19.702;2022-10-18T22:24:24;13.20;99.90
24017;DHT22;12222;50.090;19.702;2022-10-18T22:29:58;13.10;99.90
24017;DHT22;12222;50.090;19.702;2022-10-18T22:35:20;13.10;99.90
24017;DHT22;12222;50.090;19.702;2022-10-18T22:40:42;13.10;99.90
24017;DHT22;12222;50.090;19.702;2022-10-18T22:46:07;12.90;99.90
24017;DHT22;12222;50.090;19.702;2022-10-18T22:51:29;13.00;99.90
24017;DHT22;12222;50.090;19.702;2022-10-18T22:56:52;12.90;99.90
24017;DHT22;12222;50.090;19.702;2022-10-18T23:02:14;12.70;99.90
24017;DHT22;12222;50.090;19.702;2022-10-18T23:07:36;12.60;99.90
24017;DHT22;12222;50.090;19.702;2022-10-18T23:12:58;12.60;99.90
24017;DHT22;12222;50.090;19.702;2022-10-18T23:18:20;12.50;99.90
24017;DHT22;12222;50.090;19.702;2022-10-18T23:23:42;12.50;99.90
24017;DHT22;12222;50.090;19.702;2022-10-18T23:29:05;12.40;99.90
24017;DHT22;12222;50.090;19.702;2022-10-18T23:34:27;12.50;99.90
24017;DHT22;12222;50.090;19.702;2022-10-18T23:39:49;12.40;99.90
24017;DHT22;12222;50.090;19.702;2022-10-18T23:45:11;12.40;99.90
24017;DHT22;12222;50.090;19.702;2022-10-18T23:50:33;12.30;99.90
24017;DHT22;12222;50.090;19.702;2022-10-18T23:56:01;12.30;99.90
